sensor_id;sensor_type;location;lat;lon;timestamp;P1;durP1;ratioP1;P2;durP2;ratioP2
14306;SDS011;7237;49.500;11.400;2023-07-09T00:01:10;6.43;;;5.82;;
14306;SDS011;7237;49.500;11.400;2023-07-09T00:03:39;6.50;;;5.15;;
14306;SDS011;7237;49.500;11.400;2023-07-09T00:06:07;6.88;;;5.22;;
14306;SDS011;7237;49.500;11.400;2023-07-09T00:08:34;6.68;;;5.15;;
14306;SDS011;7237;49.500;11.400;2023-07-09T00:11:01;8.40;;;5.50;;
14306;SDS011;7237;49.500;11.400;2023-07-09T00:13:28;8.23;;;5.50;;
14306;SDS011;7237;49.500;11.400;2023-07-09T00:15:58;7.00;;;5.45;;
14306;SDS011;7237;49.500;11.400;2023-07-09T00:18:26;5.33;;;4.83;;
14306;SDS011;7237;49.500;11.400;2023-07-09T00:20:53;7.25;;;5.93;;
14306;SDS011;7237;49.500;11.400;2023-07-09T00:23:20;6.00;;;5.32;;
14306;SDS011;7237;49.500;11.400;2023-07-09T00:25:47;7.33;;;5.60;;
14306;SDS011;7237;49.500;11.400;2023-07-09T00:28:14;7.03;;;5.35;;
14306;SDS011;7237;49.500;11.400;2023-07-09T00:30:42;5.93;;;5.32;;
14306;SDS011;7237;49.500;11.400;2023-07-09T00:33:11;6.22;;;5.25;;
14306;SDS011;7237;49.500;11.400;2023-07-09T00:35:40;6.55;;;4.95;;
14306;SDS011;7237;49.500;11.400;2023-07-09T00:38:10;6.00;;;5.40;;
14306;SDS011;7237;49.500;11.400;2023-07-09T00:40:44;8.00;;;4.95;;
14306;SDS011;7237;49.500;11.400;2023-07-09T00:43:13;7.23;;;4.93;;
14306;SDS011;7237;49.500;11.400;2023-07-09T00:45:41;7.63;;;5.77;;
14306;SDS011;7237;49.500;11.400;2023-07-09T00:48:09;8.20;;;5.03;;
14306;SDS011;7237;49.500;11.400;2023-07-09T00:50:40;5.63;;;5.13;;
14306;SDS011;7237;49.500;11.400;2023-07-09T00:53:11;6.57;;;5.40;;
14306;SDS011;7237;49.500;11.400;2023-07-09T00:55:43;6.17;;;5.23;;
14306;SDS011;7237;49.500;11.400;2023-07-09T00:58:11;6.03;;;5.43;;
14306;SDS011;7237;49.500;11.400;2023-07-09T01:00:41;6.00;;;5.40;;
14306;SDS011;7237;49.500;11.400;2023-07-09T01:03:15;6.27;;;5.20;;
14306;SDS011;7237;49.500;11.400;2023-07-09T01:05:46;5.90;;;5.30;;
14306;SDS011;7237;49.500;11.400;2023-07-09T01:08:17;8.50;;;5.17;;
14306;SDS011;7237;49.500;11.400;2023-07-09T01:10:44;7.23;;;5.23;;
14306;SDS011;7237;49.500;11.400;2023-07-09T01:13:11;6.17;;;5.47;;
14306;SDS011;7237;49.500;11.400;2023-07-09T01:15:38;7.33;;;5.33;;
14306;SDS011;7237;49.500;11.400;2023-07-09T01:18:05;6.55;;;5.22;;
14306;SDS011;7237;49.500;11.400;2023-07-09T01:20:33;7.33;;;5.17;;
14306;SDS011;7237;49.500;11.400;2023-07-09T01:23:02;7.77;;;5.17;;
14306;SDS011;7237;49.500;11.400;2023-07-09T01:25:31;9.63;;;5.70;;
14306;SDS011;7237;49.500;11.400;2023-07-09T01:27:58;6.27;;;4.90;;
14306;SDS011;7237;49.500;11.400;2023-07-09T01:30:27;6.60;;;5.40;;
14306;SDS011;7237;49.500;11.400;2023-07-09T01:32:55;9.90;;;5.60;;
14306;SDS011;7237;49.500;11.400;2023-07-09T01:35:23;5.63;;;5.10;;
14306;SDS011;7237;49.500;11.400;2023-07-09T01:37:51;6.47;;;4.70;;
14306;SDS011;7237;49.500;11.400;2023-07-09T01:40:21;11.70;;;5.10;;
14306;SDS011;7237;49.500;11.400;2023-07-09T01:42:49;8.00;;;5.60;;
14306;SDS011;7237;49.500;11.400;2023-07-09T01:45:17;8.97;;;5.13;;
14306;SDS011;7237;49.500;11.400;2023-07-09T01:47:45;5.83;;;5.23;;
14306;SDS011;7237;49.500;11.400;2023-07-09T01:50:12;7.87;;;5.23;;
14306;SDS011;7237;49.500;11.400;2023-07-09T01:52:42;6.07;;;5.13;;
14306;SDS011;7237;49.500;11.400;2023-07-09T01:55:10;6.17;;;5.37;;
14306;SDS011;7237;49.500;11.400;2023-07-09T01:57:39;7.83;;;5.40;;
14306;SDS011;7237;49.500;11.400;2023-07-09T02:00:08;8.87;;;5.40;;
14306;SDS011;7237;49.500;11.400;2023-07-09T02:02:36;6.00;;;5.40;;
14306;SDS011;7237;49.500;11.400;2023-07-09T02:05:04;6.10;;;5.50;;
14306;SDS011;7237;49.500;11.400;2023-07-09T02:07:31;6.83;;;5.30;;
14306;SDS011;7237;49.500;11.400;2023-07-09T02:09:58;6.60;;;5.53;;
14306;SDS011;7237;49.500;11.400;2023-07-09T02:12:25;7.10;;;5.47;;
14306;SDS011;7237;49.500;11.400;2023-07-09T02:14:53;7.37;;;5.20;;
14306;SDS011;7237;49.500;11.400;2023-07-09T02:17:20;7.33;;;5.40;;
14306;SDS011;7237;49.500;11.400;2023-07-09T02:19:47;6.50;;;4.77;;
14306;SDS011;7237;49.500;11.400;2023-07-09T02:22:14;6.87;;;5.30;;
14306;SDS011;7237;49.500;11.400;2023-07-09T02:24:42;6.40;;;5.57;;
14306;SDS011;7237;49.500;11.400;2023-07-09T02:27:09;7.37;;;5.73;;
14306;SDS011;7237;49.500;11.400;2023-07-09T02:29:36;5.30;;;4.80;;
14306;SDS011;7237;49.500;11.400;2023-07-09T02:32:05;6.67;;;5.23;;
14306;SDS011;7237;49.500;11.400;2023-07-09T02:34:33;6.53;;;5.10;;
14306;SDS011;7237;49.500;11.400;2023-07-09T02:37:00;5.60;;;5.00;;
14306;SDS011;7237;49.500;11.400;2023-07-09T02:39:27;6.63;;;5.60;;
14306;SDS011;7237;49.500;11.400;2023-07-09T02:41:54;5.80;;;4.93;;
14306;SDS011;7237;49.500;11.400;2023-07-09T02:44:21;6.20;;;5.50;;
14306;SDS011;7237;49.500;11.400;2023-07-09T02:46:48;5.47;;;4.97;;
14306;SDS011;7237;49.500;11.400;2023-07-09T02:49:17;7.70;;;5.17;;
14306;SDS011;7237;49.500;11.400;2023-07-09T02:51:44;8.93;;;6.00;;
14306;SDS011;7237;49.500;11.400;2023-07-09T02:54:11;5.30;;;4.67;;
14306;SDS011;7237;49.500;11.400;2023-07-09T02:56:38;5.57;;;5.00;;
14306;SDS011;7237;49.500;11.400;2023-07-09T02:59:05;7.13;;;5.30;;
14306;SDS011;7237;49.500;11.400;2023-07-09T03:01:32;6.63;;;5.27;;
14306;SDS011;7237;49.500;11.400;2023-07-09T03:04:01;7.50;;;5.17;;
14306;SDS011;7237;49.500;11.400;2023-07-09T03:06:30;9.47;;;5.13;;
14306;SDS011;7237;49.500;11.400;2023-07-09T03:08:58;7.17;;;5.60;;
14306;SDS011;7237;49.500;11.400;2023-07-09T03:11:27;5.83;;;5.23;;
14306;SDS011;7237;49.500;11.400;2023-07-09T03:13:54;5.67;;;5.03;;
14306;SDS011;7237;49.500;11.400;2023-07-09T03:16:21;6.10;;;5.10;;
14306;SDS011;7237;49.500;11.400;2023-07-09T03:18:48;8.37;;;5.33;;
14306;SDS011;7237;49.500;11.400;2023-07-09T03:21:15;5.53;;;5.03;;
14306;SDS011;7237;49.500;11.400;2023-07-09T03:23:44;6.10;;;5.50;;
14306;SDS011;7237;49.500;11.400;2023-07-09T03:26:11;6.03;;;5.07;;
14306;SDS011;7237;49.500;11.400;2023-07-09T03:28:40;8.40;;;5.47;;
14306;SDS011;7237;49.500;11.400;2023-07-09T03:31:07;6.33;;;5.13;;
14306;SDS011;7237;49.500;11.400;2023-07-09T03:33:34;7.87;;;5.60;;
14306;SDS011;7237;49.500;11.400;2023-07-09T03:36:01;8.20;;;5.07;;
14306;SDS011;7237;49.500;11.400;2023-07-09T03:38:29;7.47;;;4.93;;
14306;SDS011;7237;49.500;11.400;2023-07-09T03:40:58;7.93;;;5.50;;
14306;SDS011;7237;49.500;11.400;2023-07-09T03:43:25;10.57;;;5.53;;
14306;SDS011;7237;49.500;11.400;2023-07-09T03:45:52;5.70;;;4.80;;
14306;SDS011;7237;49.500;11.400;2023-07-09T03:48:19;5.97;;;5.37;;
14306;SDS011;7237;49.500;11.400;2023-07-09T03:50:46;6.37;;;4.63;;
14306;SDS011;7237;49.500;11.400;2023-07-09T03:53:14;6.37;;;5.17;;
14306;SDS011;7237;49.500;11.400;2023-07-09T03:55:42;6.43;;;5.10;;
14306;SDS011;7237;49.500;11.400;2023-07-09T03:58:12;6.07;;;5.47;;
14306;SDS011;7237;49.500;11.400;2023-07-09T04:00:39;5.83;;;5.23;;
14306;SDS011;7237;49.500;11.400;2023-07-09T04:03:06;5.70;;;5.07;;
14306;SDS011;7237;49.500;11.400;2023-07-09T04:05:35;6.83;;;5.20;;
14306;SDS011;7237;49.500;11.400;2023-07-09T04:08:02;6.13;;;5.47;;
14306;SDS011;7237;49.500;11.400;2023-07-09T04:10:29;7.93;;;4.57;;
14306;SDS011;7237;49.500;11.400;2023-07-09T04:12:56;5.57;;;4.77;;
14306;SDS011;7237;49.500;11.400;2023-07-09T04:15:24;6.60;;;5.27;;
14306;SDS011;7237;49.500;11.400;2023-07-09T04:17:51;6.20;;;5.17;;
14306;SDS011;7237;49.500;11.400;2023-07-09T04:20:19;5.90;;;5.30;;
14306;SDS011;7237;49.500;11.400;2023-07-09T04:22:46;6.20;;;4.80;;
14306;SDS011;7237;49.500;11.400;2023-07-09T04:25:13;7.47;;;5.13;;
14306;SDS011;7237;49.500;11.400;2023-07-09T04:27:41;8.30;;;4.97;;
14306;SDS011;7237;49.500;11.400;2023-07-09T04:30:08;5.47;;;4.97;;
14306;SDS011;7237;49.500;11.400;2023-07-09T04:32:37;7.03;;;5.00;;
14306;SDS011;7237;49.500;11.400;2023-07-09T04:35:05;6.17;;;5.33;;
14306;SDS011;7237;49.500;11.400;2023-07-09T04:37:32;6.03;;;5.07;;
14306;SDS011;7237;49.500;11.400;2023-07-09T04:39:59;6.97;;;5.07;;
14306;SDS011;7237;49.500;11.400;2023-07-09T04:42:26;5.27;;;4.40;;
14306;SDS011;7237;49.500;11.400;2023-07-09T04:44:53;6.03;;;5.00;;
14306;SDS011;7237;49.500;11.400;2023-07-09T04:47:20;8.17;;;4.87;;
14306;SDS011;7237;49.500;11.400;2023-07-09T04:49:49;6.22;;;5.10;;
14306;SDS011;7237;49.500;11.400;2023-07-09T04:52:16;6.55;;;4.90;;
14306;SDS011;7237;49.500;11.400;2023-07-09T04:54:43;7.00;;;5.13;;
14306;SDS011;7237;49.500;11.400;2023-07-09T04:57:10;5.63;;;5.03;;
14306;SDS011;7237;49.500;11.400;2023-07-09T04:59:38;6.88;;;5.10;;
14306;SDS011;7237;49.500;11.400;2023-07-09T05:02:06;5.93;;;5.07;;
14306;SDS011;7237;49.500;11.400;2023-07-09T05:04:33;5.35;;;4.82;;
14306;SDS011;7237;49.500;11.400;2023-07-09T05:07:02;6.25;;;5.05;;
14306;SDS011;7237;49.500;11.400;2023-07-09T05:09:29;5.47;;;4.97;;
14306;SDS011;7237;49.500;11.400;2023-07-09T05:11:56;5.60;;;5.00;;
14306;SDS011;7237;49.500;11.400;2023-07-09T05:14:23;7.25;;;5.13;;
14306;SDS011;7237;49.500;11.400;2023-07-09T05:16:50;6.78;;;5.15;;
14306;SDS011;7237;49.500;11.400;2023-07-09T05:19:17;6.20;;;4.57;;
14306;SDS011;7237;49.500;11.400;2023-07-09T05:21:44;9.05;;;4.88;;
14306;SDS011;7237;49.500;11.400;2023-07-09T05:24:12;5.45;;;4.95;;
14306;SDS011;7237;49.500;11.400;2023-07-09T05:26:39;8.25;;;5.63;;
14306;SDS011;7237;49.500;11.400;2023-07-09T05:29:06;7.40;;;6.10;;
14306;SDS011;7237;49.500;11.400;2023-07-09T05:31:33;5.65;;;5.15;;
14306;SDS011;7237;49.500;11.400;2023-07-09T05:34:01;8.80;;;5.20;;
14306;SDS011;7237;49.500;11.400;2023-07-09T05:36:28;7.20;;;5.07;;
14306;SDS011;7237;49.500;11.400;2023-07-09T05:38:55;7.55;;;5.18;;
14306;SDS011;7237;49.500;11.400;2023-07-09T05:41:24;5.43;;;4.93;;
14306;SDS011;7237;49.500;11.400;2023-07-09T05:43:51;8.82;;;5.00;;
14306;SDS011;7237;49.500;11.400;2023-07-09T05:46:22;5.55;;;5.05;;
14306;SDS011;7237;49.500;11.400;2023-07-09T05:48:50;7.35;;;4.90;;
14306;SDS011;7237;49.500;11.400;2023-07-09T05:51:17;5.47;;;4.85;;
14306;SDS011;7237;49.500;11.400;2023-07-09T05:53:46;5.40;;;4.75;;
14306;SDS011;7237;49.500;11.400;2023-07-09T05:56:13;10.00;;;5.15;;
14306;SDS011;7237;49.500;11.400;2023-07-09T05:58:41;5.35;;;4.57;;
14306;SDS011;7237;49.500;11.400;2023-07-09T06:01:08;5.63;;;4.90;;
14306;SDS011;7237;49.500;11.400;2023-07-09T06:03:36;5.82;;;4.47;;
14306;SDS011;7237;49.500;11.400;2023-07-09T06:06:03;5.53;;;4.60;;
14306;SDS011;7237;49.500;11.400;2023-07-09T06:08:30;5.63;;;4.85;;
14306;SDS011;7237;49.500;11.400;2023-07-09T06:10:58;8.57;;;5.90;;
14306;SDS011;7237;49.500;11.400;2023-07-09T06:13:26;10.18;;;6.28;;
14306;SDS011;7237;49.500;11.400;2023-07-09T06:15:54;6.55;;;5.43;;
14306;SDS011;7237;49.500;11.400;2023-07-09T06:18:22;6.63;;;5.32;;
14306;SDS011;7237;49.500;11.400;2023-07-09T06:20:50;6.78;;;4.95;;
14306;SDS011;7237;49.500;11.400;2023-07-09T06:23:17;6.30;;;5.55;;
14306;SDS011;7237;49.500;11.400;2023-07-09T06:25:45;7.60;;;5.50;;
14306;SDS011;7237;49.500;11.400;2023-07-09T06:28:14;5.35;;;4.85;;
14306;SDS011;7237;49.500;11.400;2023-07-09T06:30:41;5.50;;;4.93;;
14306;SDS011;7237;49.500;11.400;2023-07-09T06:33:09;5.97;;;4.95;;
14306;SDS011;7237;49.500;11.400;2023-07-09T06:35:37;5.63;;;5.03;;
14306;SDS011;7237;49.500;11.400;2023-07-09T06:38:04;7.68;;;5.32;;
14306;SDS011;7237;49.500;11.400;2023-07-09T06:40:31;6.95;;;5.10;;
14306;SDS011;7237;49.500;11.400;2023-07-09T06:42:58;5.47;;;4.68;;
14306;SDS011;7237;49.500;11.400;2023-07-09T06:45:25;6.20;;;5.13;;
14306;SDS011;7237;49.500;11.400;2023-07-09T06:47:52;5.88;;;4.93;;
14306;SDS011;7237;49.500;11.400;2023-07-09T06:50:21;8.57;;;5.38;;
14306;SDS011;7237;49.500;11.400;2023-07-09T06:52:48;9.50;;;5.50;;
14306;SDS011;7237;49.500;11.400;2023-07-09T06:55:15;9.10;;;5.40;;
14306;SDS011;7237;49.500;11.400;2023-07-09T06:57:42;5.80;;;5.30;;
14306;SDS011;7237;49.500;11.400;2023-07-09T07:00:09;6.47;;;5.68;;
14306;SDS011;7237;49.500;11.400;2023-07-09T07:02:36;9.25;;;5.25;;
14306;SDS011;7237;49.500;11.400;2023-07-09T07:05:04;5.75;;;5.15;;
14306;SDS011;7237;49.500;11.400;2023-07-09T07:07:32;8.20;;;5.15;;
14306;SDS011;7237;49.500;11.400;2023-07-09T07:09:59;5.93;;;5.03;;
14306;SDS011;7237;49.500;11.400;2023-07-09T07:12:27;5.05;;;4.55;;
14306;SDS011;7237;49.500;11.400;2023-07-09T07:14:55;5.93;;;5.32;;
14306;SDS011;7237;49.500;11.400;2023-07-09T07:17:22;7.43;;;5.20;;
14306;SDS011;7237;49.500;11.400;2023-07-09T07:19:49;7.45;;;5.15;;
14306;SDS011;7237;49.500;11.400;2023-07-09T07:22:17;6.78;;;5.03;;
14306;SDS011;7237;49.500;11.400;2023-07-09T07:24:45;8.13;;;5.30;;
14306;SDS011;7237;49.500;11.400;2023-07-09T07:27:12;5.93;;;5.30;;
14306;SDS011;7237;49.500;11.400;2023-07-09T07:29:39;6.75;;;5.63;;
14306;SDS011;7237;49.500;11.400;2023-07-09T07:32:06;6.25;;;5.07;;
14306;SDS011;7237;49.500;11.400;2023-07-09T07:34:34;7.10;;;5.22;;
14306;SDS011;7237;49.500;11.400;2023-07-09T07:37:01;6.15;;;5.15;;
14306;SDS011;7237;49.500;11.400;2023-07-09T07:39:28;8.05;;;4.80;;
14306;SDS011;7237;49.500;11.400;2023-07-09T07:41:56;7.13;;;5.40;;
14306;SDS011;7237;49.500;11.400;2023-07-09T07:44:23;6.35;;;5.00;;
14306;SDS011;7237;49.500;11.400;2023-07-09T07:46:50;6.15;;;5.55;;
14306;SDS011;7237;49.500;11.400;2023-07-09T07:49:17;6.00;;;5.35;;
14306;SDS011;7237;49.500;11.400;2023-07-09T07:51:44;7.10;;;5.65;;
14306;SDS011;7237;49.500;11.400;2023-07-09T07:54:13;5.43;;;4.85;;
14306;SDS011;7237;49.500;11.400;2023-07-09T07:56:40;6.10;;;5.22;;
14306;SDS011;7237;49.500;11.400;2023-07-09T07:59:09;8.45;;;5.75;;
14306;SDS011;7237;49.500;11.400;2023-07-09T08:01:36;4.88;;;4.38;;
14306;SDS011;7237;49.500;11.400;2023-07-09T08:04:03;6.35;;;4.70;;
14306;SDS011;7237;49.500;11.400;2023-07-09T08:06:30;4.97;;;4.43;;
14306;SDS011;7237;49.500;11.400;2023-07-09T08:08:57;8.85;;;4.63;;
14306;SDS011;7237;49.500;11.400;2023-07-09T08:11:24;6.78;;;4.50;;
14306;SDS011;7237;49.500;11.400;2023-07-09T08:13:53;6.85;;;4.82;;
14306;SDS011;7237;49.500;11.400;2023-07-09T08:16:21;5.63;;;4.40;;
14306;SDS011;7237;49.500;11.400;2023-07-09T08:18:49;9.00;;;4.63;;
14306;SDS011;7237;49.500;11.400;2023-07-09T08:21:17;4.53;;;4.13;;
14306;SDS011;7237;49.500;11.400;2023-07-09T08:23:44;4.95;;;4.25;;
14306;SDS011;7237;49.500;11.400;2023-07-09T08:26:11;7.85;;;4.55;;
14306;SDS011;7237;49.500;11.400;2023-07-09T08:28:38;4.95;;;4.22;;
14306;SDS011;7237;49.500;11.400;2023-07-09T08:31:05;4.72;;;4.32;;
14306;SDS011;7237;49.500;11.400;2023-07-09T08:33:34;4.30;;;3.90;;
14306;SDS011;7237;49.500;11.400;2023-07-09T08:36:01;6.45;;;4.20;;
14306;SDS011;7237;49.500;11.400;2023-07-09T08:38:28;5.15;;;3.72;;
14306;SDS011;7237;49.500;11.400;2023-07-09T08:40:56;6.63;;;4.28;;
14306;SDS011;7237;49.500;11.400;2023-07-09T08:43:31;4.75;;;3.78;;
14306;SDS011;7237;49.500;11.400;2023-07-09T08:46:01;4.95;;;3.78;;
14306;SDS011;7237;49.500;11.400;2023-07-09T08:48:30;6.05;;;4.35;;
14306;SDS011;7237;49.500;11.400;2023-07-09T08:51:02;5.68;;;3.67;;
14306;SDS011;7237;49.500;11.400;2023-07-09T08:53:34;6.60;;;3.42;;
14306;SDS011;7237;49.500;11.400;2023-07-09T08:56:02;5.15;;;3.90;;
14306;SDS011;7237;49.500;11.400;2023-07-09T08:58:31;3.90;;;3.33;;
14306;SDS011;7237;49.500;11.400;2023-07-09T09:00:59;4.90;;;3.15;;
14306;SDS011;7237;49.500;11.400;2023-07-09T09:03:27;5.47;;;3.47;;
14306;SDS011;7237;49.500;11.400;2023-07-09T09:05:56;3.90;;;2.92;;
14306;SDS011;7237;49.500;11.400;2023-07-09T09:08:27;6.93;;;2.85;;
14306;SDS011;7237;49.500;11.400;2023-07-09T09:10:57;4.85;;;2.90;;
14306;SDS011;7237;49.500;11.400;2023-07-09T09:13:26;5.07;;;2.97;;
14306;SDS011;7237;49.500;11.400;2023-07-09T09:16:03;3.30;;;2.97;;
14306;SDS011;7237;49.500;11.400;2023-07-09T09:18:33;3.38;;;3.08;;
14306;SDS011;7237;49.500;11.400;2023-07-09T09:21:03;7.35;;;3.58;;
14306;SDS011;7237;49.500;11.400;2023-07-09T09:23:38;3.65;;;3.20;;
14306;SDS011;7237;49.500;11.400;2023-07-09T09:26:09;5.63;;;3.53;;
14306;SDS011;7237;49.500;11.400;2023-07-09T09:28:38;4.95;;;3.78;;
14306;SDS011;7237;49.500;11.400;2023-07-09T09:31:05;4.10;;;3.70;;
14306;SDS011;7237;49.500;11.400;2023-07-09T09:33:36;9.15;;;3.85;;
14306;SDS011;7237;49.500;11.400;2023-07-09T09:36:04;3.95;;;3.30;;
14306;SDS011;7237;49.500;11.400;2023-07-09T09:38:31;4.88;;;3.55;;
14306;SDS011;7237;49.500;11.400;2023-07-09T09:41:04;4.32;;;3.70;;
14306;SDS011;7237;49.500;11.400;2023-07-09T09:43:31;5.35;;;3.50;;
14306;SDS011;7237;49.500;11.400;2023-07-09T09:45:59;5.63;;;3.90;;
14306;SDS011;7237;49.500;11.400;2023-07-09T09:48:27;5.22;;;3.72;;
14306;SDS011;7237;49.500;11.400;2023-07-09T09:50:55;6.15;;;4.25;;
14306;SDS011;7237;49.500;11.400;2023-07-09T09:53:25;5.18;;;3.65;;
14306;SDS011;7237;49.500;11.400;2023-07-09T09:55:53;6.47;;;3.80;;
14306;SDS011;7237;49.500;11.400;2023-07-09T09:58:24;6.60;;;3.92;;
14306;SDS011;7237;49.500;11.400;2023-07-09T10:00:52;3.60;;;3.30;;
14306;SDS011;7237;49.500;11.400;2023-07-09T10:03:20;4.10;;;3.70;;
14306;SDS011;7237;49.500;11.400;2023-07-09T10:05:49;5.57;;;4.00;;
14306;SDS011;7237;49.500;11.400;2023-07-09T10:08:17;5.30;;;3.88;;
14306;SDS011;7237;49.500;11.400;2023-07-09T10:10:47;5.72;;;4.10;;
14306;SDS011;7237;49.500;11.400;2023-07-09T10:13:15;4.32;;;3.88;;
14306;SDS011;7237;49.500;11.400;2023-07-09T10:15:51;5.80;;;4.03;;
14306;SDS011;7237;49.500;11.400;2023-07-09T10:18:28;5.30;;;3.78;;
14306;SDS011;7237;49.500;11.400;2023-07-09T10:21:03;4.38;;;3.97;;
14306;SDS011;7237;49.500;11.400;2023-07-09T10:23:32;5.35;;;3.70;;
14306;SDS011;7237;49.500;11.400;2023-07-09T10:26:03;5.90;;;3.97;;
14306;SDS011;7237;49.500;11.400;2023-07-09T10:28:40;7.30;;;3.40;;
14306;SDS011;7237;49.500;11.400;2023-07-09T10:31:12;5.40;;;3.67;;
14306;SDS011;7237;49.500;11.400;2023-07-09T10:33:45;4.43;;;3.53;;
14306;SDS011;7237;49.500;11.400;2023-07-09T10:36:19;5.28;;;4.10;;
14306;SDS011;7237;49.500;11.400;2023-07-09T10:38:49;4.15;;;3.70;;
14306;SDS011;7237;49.500;11.400;2023-07-09T10:41:19;6.90;;;3.85;;
14306;SDS011;7237;49.500;11.400;2023-07-09T10:43:48;6.30;;;3.90;;
14306;SDS011;7237;49.500;11.400;2023-07-09T10:46:18;6.57;;;3.80;;
14306;SDS011;7237;49.500;11.400;2023-07-09T10:48:48;5.90;;;3.97;;
14306;SDS011;7237;49.500;11.400;2023-07-09T10:51:17;6.00;;;3.35;;
14306;SDS011;7237;49.500;11.400;2023-07-09T10:53:47;4.53;;;3.35;;
14306;SDS011;7237;49.500;11.400;2023-07-09T10:56:16;4.00;;;3.42;;
14306;SDS011;7237;49.500;11.400;2023-07-09T10:58:46;4.95;;;3.53;;
14306;SDS011;7237;49.500;11.400;2023-07-09T11:01:15;5.90;;;3.72;;
14306;SDS011;7237;49.500;11.400;2023-07-09T11:03:49;5.38;;;3.80;;
14306;SDS011;7237;49.500;11.400;2023-07-09T11:06:19;5.05;;;3.60;;
14306;SDS011;7237;49.500;11.400;2023-07-09T11:08:48;4.90;;;3.85;;
14306;SDS011;7237;49.500;11.400;2023-07-09T11:11:17;5.88;;;3.67;;
14306;SDS011;7237;49.500;11.400;2023-07-09T11:13:49;4.75;;;3.90;;
14306;SDS011;7237;49.500;11.400;2023-07-09T11:16:20;5.95;;;4.00;;
14306;SDS011;7237;49.500;11.400;2023-07-09T11:18:56;3.83;;;3.40;;
14306;SDS011;7237;49.500;11.400;2023-07-09T11:21:25;4.03;;;3.63;;
14306;SDS011;7237;49.500;11.400;2023-07-09T11:23:53;6.03;;;3.45;;
14306;SDS011;7237;49.500;11.400;2023-07-09T11:26:22;9.55;;;4.30;;
14306;SDS011;7237;49.500;11.400;2023-07-09T11:28:50;5.18;;;3.28;;
14306;SDS011;7237;49.500;11.400;2023-07-09T11:31:21;5.28;;;3.92;;
14306;SDS011;7237;49.500;11.400;2023-07-09T11:33:49;9.63;;;3.92;;
14306;SDS011;7237;49.500;11.400;2023-07-09T11:36:25;4.75;;;3.90;;
14306;SDS011;7237;49.500;11.400;2023-07-09T11:38:52;4.20;;;3.50;;
14306;SDS011;7237;49.500;11.400;2023-07-09T11:41:27;4.93;;;3.97;;
14306;SDS011;7237;49.500;11.400;2023-07-09T11:44:02;5.07;;;4.13;;
14306;SDS011;7237;49.500;11.400;2023-07-09T11:46:29;5.78;;;4.07;;
14306;SDS011;7237;49.500;11.400;2023-07-09T11:48:57;4.82;;;3.60;;
14306;SDS011;7237;49.500;11.400;2023-07-09T11:51:29;5.72;;;4.15;;
14306;SDS011;7237;49.500;11.400;2023-07-09T11:54:02;4.35;;;3.78;;
14306;SDS011;7237;49.500;11.400;2023-07-09T11:56:29;6.85;;;3.55;;
14306;SDS011;7237;49.500;11.400;2023-07-09T11:58:56;4.15;;;3.72;;
14306;SDS011;7237;49.500;11.400;2023-07-09T12:01:24;6.00;;;3.67;;
14306;SDS011;7237;49.500;11.400;2023-07-09T12:03:53;4.28;;;3.65;;
14306;SDS011;7237;49.500;11.400;2023-07-09T12:06:23;5.68;;;3.42;;
14306;SDS011;7237;49.500;11.400;2023-07-09T12:08:51;5.07;;;4.00;;
14306;SDS011;7237;49.500;11.400;2023-07-09T12:11:20;6.60;;;3.70;;
14306;SDS011;7237;49.500;11.400;2023-07-09T12:13:47;5.07;;;4.13;;
14306;SDS011;7237;49.500;11.400;2023-07-09T12:16:19;6.32;;;3.80;;
14306;SDS011;7237;49.500;11.400;2023-07-09T12:18:47;7.75;;;4.20;;
14306;SDS011;7237;49.500;11.400;2023-07-09T12:21:14;6.70;;;3.83;;
14306;SDS011;7237;49.500;11.400;2023-07-09T12:23:41;5.95;;;4.32;;
14306;SDS011;7237;49.500;11.400;2023-07-09T12:26:11;5.18;;;3.90;;
14306;SDS011;7237;49.500;11.400;2023-07-09T12:28:39;5.43;;;3.88;;
14306;SDS011;7237;49.500;11.400;2023-07-09T12:31:10;4.60;;;4.03;;
14306;SDS011;7237;49.500;11.400;2023-07-09T12:33:45;5.47;;;4.00;;
14306;SDS011;7237;49.500;11.400;2023-07-09T12:36:13;3.92;;;3.53;;
14306;SDS011;7237;49.500;11.400;2023-07-09T12:38:41;5.53;;;3.67;;
14306;SDS011;7237;49.500;11.400;2023-07-09T12:41:14;5.53;;;4.00;;
14306;SDS011;7237;49.500;11.400;2023-07-09T12:43:43;4.18;;;3.65;;
14306;SDS011;7237;49.500;11.400;2023-07-09T12:46:10;4.07;;;3.55;;
14306;SDS011;7237;49.500;11.400;2023-07-09T12:48:37;4.82;;;3.80;;
14306;SDS011;7237;49.500;11.400;2023-07-09T12:51:06;6.72;;;3.88;;
14306;SDS011;7237;49.500;11.400;2023-07-09T12:53:35;6.95;;;4.10;;
14306;SDS011;7237;49.500;11.400;2023-07-09T12:56:03;4.97;;;4.32;;
14306;SDS011;7237;49.500;11.400;2023-07-09T12:58:39;4.88;;;3.45;;
14306;SDS011;7237;49.500;11.400;2023-07-09T13:01:06;6.30;;;4.22;;
14306;SDS011;7237;49.500;11.400;2023-07-09T13:03:34;6.10;;;3.63;;
14306;SDS011;7237;49.500;11.400;2023-07-09T13:06:02;6.50;;;3.90;;
14306;SDS011;7237;49.500;11.400;2023-07-09T13:08:31;5.05;;;4.00;;
14306;SDS011;7237;49.500;11.400;2023-07-09T13:10:59;6.97;;;3.95;;
14306;SDS011;7237;49.500;11.400;2023-07-09T13:13:26;3.78;;;3.47;;
14306;SDS011;7237;49.500;11.400;2023-07-09T13:15:56;5.18;;;3.35;;
14306;SDS011;7237;49.500;11.400;2023-07-09T13:18:25;5.63;;;3.92;;
14306;SDS011;7237;49.500;11.400;2023-07-09T13:20:53;4.13;;;3.42;;
14306;SDS011;7237;49.500;11.400;2023-07-09T13:23:22;6.82;;;3.83;;
14306;SDS011;7237;49.500;11.400;2023-07-09T13:25:49;7.03;;;3.40;;
14306;SDS011;7237;49.500;11.400;2023-07-09T13:28:17;8.75;;;4.32;;
14306;SDS011;7237;49.500;11.400;2023-07-09T13:30:45;6.93;;;4.07;;
14306;SDS011;7237;49.500;11.400;2023-07-09T13:33:13;4.10;;;3.78;;
14306;SDS011;7237;49.500;11.400;2023-07-09T13:35:42;5.25;;;3.95;;
14306;SDS011;7237;49.500;11.400;2023-07-09T13:38:13;5.40;;;3.67;;
14306;SDS011;7237;49.500;11.400;2023-07-09T13:40:40;5.13;;;3.90;;
14306;SDS011;7237;49.500;11.400;2023-07-09T13:43:10;3.85;;;3.20;;
14306;SDS011;7237;49.500;11.400;2023-07-09T13:45:38;4.55;;;4.07;;
14306;SDS011;7237;49.500;11.400;2023-07-09T13:48:07;6.28;;;3.70;;
14306;SDS011;7237;49.500;11.400;2023-07-09T13:50:40;6.78;;;3.90;;
14306;SDS011;7237;49.500;11.400;2023-07-09T13:53:09;4.40;;;4.00;;
14306;SDS011;7237;49.500;11.400;2023-07-09T13:55:37;7.65;;;3.95;;
14306;SDS011;7237;49.500;11.400;2023-07-09T13:58:04;5.30;;;3.63;;
14306;SDS011;7237;49.500;11.400;2023-07-09T14:00:31;5.38;;;3.20;;
14306;SDS011;7237;49.500;11.400;2023-07-09T14:02:58;5.25;;;3.45;;
14306;SDS011;7237;49.500;11.400;2023-07-09T14:05:25;4.97;;;3.80;;
14306;SDS011;7237;49.500;11.400;2023-07-09T14:07:54;6.95;;;3.55;;
14306;SDS011;7237;49.500;11.400;2023-07-09T14:10:21;5.63;;;3.95;;
14306;SDS011;7237;49.500;11.400;2023-07-09T14:12:48;5.40;;;3.35;;
14306;SDS011;7237;49.500;11.400;2023-07-09T14:15:17;6.15;;;3.67;;
14306;SDS011;7237;49.500;11.400;2023-07-09T14:17:44;5.40;;;3.25;;
14306;SDS011;7237;49.500;11.400;2023-07-09T14:20:12;6.43;;;3.95;;
14306;SDS011;7237;49.500;11.400;2023-07-09T14:22:40;4.13;;;3.17;;
14306;SDS011;7237;49.500;11.400;2023-07-09T14:25:14;5.78;;;3.83;;
14306;SDS011;7237;49.500;11.400;2023-07-09T14:27:42;7.95;;;3.85;;
14306;SDS011;7237;49.500;11.400;2023-07-09T14:30:09;4.63;;;3.65;;
14306;SDS011;7237;49.500;11.400;2023-07-09T14:32:40;6.53;;;4.05;;
14306;SDS011;7237;49.500;11.400;2023-07-09T14:35:10;6.45;;;3.90;;
14306;SDS011;7237;49.500;11.400;2023-07-09T14:37:37;4.93;;;3.47;;
14306;SDS011;7237;49.500;11.400;2023-07-09T14:40:05;5.88;;;3.63;;
14306;SDS011;7237;49.500;11.400;2023-07-09T14:42:33;5.85;;;3.70;;
14306;SDS011;7237;49.500;11.400;2023-07-09T14:45:00;4.28;;;3.42;;
14306;SDS011;7237;49.500;11.400;2023-07-09T14:47:28;8.23;;;3.78;;
14306;SDS011;7237;49.500;11.400;2023-07-09T14:49:55;6.28;;;3.85;;
14306;SDS011;7237;49.500;11.400;2023-07-09T14:52:22;4.40;;;3.13;;
14306;SDS011;7237;49.500;11.400;2023-07-09T14:54:49;6.38;;;3.80;;